Airfield :







YOU CAN JOIN US ON...

 
LOGIN :

Register | Disclaimer

   EN    FR    IT 

 









Legend :    VFR   Marginal VFR   IFR   Intensive IFR   Very Intensive IFR
Visi :
Ceiling :
>= 8 km
>= 3000ft
5 to 8 km
1000 to 3000 ft
1500m to 5 km
500 to 1000 ft
800 to 1500m
200 to 500 ft
< 800m
< 200 ft
Symbols :   Thunderstorms  Fog  Heavy snow  Heavy precipitations  Wind > 20 kt






- Airport Elevation : 141 ft
- IATA code : YQI


CYQI - Yarmouth

CURRENT METAR :
  • 180000Z 27008KT 15SM FEW250 13/11 A2992 RMK CI1 SLP133

EXPIRED METARs :
  • 172300Z 25009KT 15SM SCT250 15/12 A2990 RMK CI3 SLP128 DENSITY ALT 200FT
  • 172200Z 24011KT 15SM FEW250 16/11 A2989 RMK CI2 SLP124 DENSITY ALT 400FT

TAF TAF CYQI
Valid from the 18 at 00:00 until the 18 at 12:00 UTC


172338Z 1800/1812 25010KT P6SM FEW070
BECMG 1804/1806 20005KT RMK NXT FCST BY 180600Z
CZQM FIR / North America



MET'MAP, your aeronautical weather chart ! - Copyright ORBIFLY December 2007 - Disclaimer

ORBIFLY MET'MAP TEAM :

Programming & Development : Alexandra Zaïnal
Concept & original design : Baudouin d'Aumeries
Assistance for programming : Marc-Olivier Méhu
Technical & hardware support : Manuel Goepfert

Contact : metmap@orbifly.com




SOURCES & CREDITS :

   NOAA